createdAt,value
2022-12-26T00:00:00.741Z,86.12
2022-12-26T00:04:04.710Z,86.31
2022-12-26T00:08:08.212Z,85.98
2022-12-26T00:12:12.632Z,86.39
2022-12-26T00:16:17.556Z,86.63
2022-12-26T00:20:20.544Z,86.90
2022-12-26T00:24:23.693Z,87.00
2022-12-26T00:28:28.444Z,87.05
2022-12-26T00:32:31.613Z,86.98
2022-12-26T00:36:35.609Z,87.11
2022-12-26T00:40:42.961Z,87.32
2022-12-26T00:44:47.271Z,87.28
2022-12-26T00:48:50.241Z,87.73
2022-12-26T00:52:53.200Z,87.83
2022-12-26T00:56:56.123Z,88.41
2022-12-26T01:01:09.285Z,88.73
2022-12-26T01:05:13.066Z,88.54
2022-12-26T01:09:15.957Z,88.82
2022-12-26T01:13:18.923Z,88.77
2022-12-26T01:17:23.322Z,88.71
2022-12-26T01:21:26.284Z,88.92
2022-12-26T01:25:29.415Z,89.14
2022-12-26T01:29:32.604Z,89.27
2022-12-26T01:33:37.057Z,89.06
2022-12-26T01:37:40.040Z,89.33
2022-12-26T01:41:42.991Z,88.84
2022-12-26T01:45:51.448Z,89.35
2022-12-26T01:49:56.709Z,89.11
2022-12-26T01:54:38.228Z,89.02
2022-12-26T01:58:31.726Z,89.48
2022-12-26T02:02:55.346Z,89.58
2022-12-26T02:07:00.511Z,89.50
2022-12-26T02:11:11.800Z,89.55
2022-12-26T02:15:17.893Z,89.20
2022-12-26T02:19:37.267Z,89.44
2022-12-26T02:24:17.276Z,89.67
2022-12-26T02:28:46.650Z,89.89
2022-12-26T02:33:23.331Z,89.54
2022-12-26T02:37:44.346Z,89.50
2022-12-26T02:41:57.300Z,89.98
2022-12-26T02:46:27.057Z,90.49
2022-12-26T02:50:58.253Z,90.78
2022-12-26T02:55:25.754Z,90.68
2022-12-26T02:59:59.055Z,90.62
2022-12-26T03:04:22.813Z,90.45
2022-12-26T03:08:50.815Z,90.35
2022-12-26T03:13:13.124Z,90.12
2022-12-26T03:17:32.840Z,90.34
2022-12-26T03:21:40.212Z,90.93
2022-12-26T03:26:13.920Z,91.12
2022-12-26T03:30:34.914Z,91.10
2022-12-26T03:34:42.727Z,91.25
2022-12-26T03:38:56.051Z,91.22
2022-12-26T03:43:28.761Z,91.23
2022-12-26T03:47:57.522Z,90.95
2022-12-26T03:52:22.309Z,90.88
2022-12-26T03:56:48.472Z,90.40
2022-12-26T04:01:14.271Z,90.64
2022-12-26T04:05:37.791Z,90.78
2022-12-26T04:10:02.702Z,91.10
2022-12-26T04:14:29.872Z,91.10
2022-12-26T04:18:57.190Z,91.41
2022-12-26T04:23:38.271Z,91.06
2022-12-26T04:27:58.860Z,91.01
2022-12-26T04:32:26.051Z,90.95
2022-12-26T04:36:51.656Z,90.95
2022-12-26T04:41:18.585Z,91.00
2022-12-26T04:45:22.752Z,91.04
2022-12-26T04:49:43.314Z,91.11
2022-12-26T04:53:47.604Z,91.48
2022-12-26T04:57:50.574Z,91.09
2022-12-26T05:02:11.039Z,91.45
2022-12-26T05:06:31.392Z,91.14
2022-12-26T05:10:35.997Z,91.42
2022-12-26T05:14:38.998Z,91.56
2022-12-26T05:18:59.489Z,91.64
2022-12-26T05:23:22.272Z,91.40
2022-12-26T05:27:49.142Z,91.53
2022-12-26T05:31:52.487Z,91.84
2022-12-26T05:35:55.493Z,91.74
2022-12-26T05:39:58.400Z,91.79
2022-12-26T05:44:02.854Z,91.88
2022-12-26T05:48:06.227Z,91.59
2022-12-26T05:52:09.168Z,91.82
2022-12-26T05:56:14.975Z,91.98
2022-12-26T06:00:19.924Z,91.94
2022-12-26T06:04:22.883Z,91.69
2022-12-26T06:08:25.829Z,91.80
2022-12-26T06:12:28.759Z,91.77
2022-12-26T06:16:33.149Z,91.64
2022-12-26T06:20:39.316Z,91.71
2022-12-26T06:24:42.602Z,91.47
2022-12-26T06:28:47.505Z,91.74
2022-12-26T06:32:52.885Z,91.56
2022-12-26T06:36:56.666Z,91.61
2022-12-26T06:41:00.842Z,91.27
2022-12-26T06:45:04.456Z,91.59
2022-12-26T06:49:09.028Z,91.60
2022-12-26T06:53:11.977Z,91.88
2022-12-26T06:57:14.891Z,91.65
2022-12-26T07:01:19.991Z,91.66
2022-12-26T07:05:24.520Z,91.68
2022-12-26T07:09:33.418Z,91.79
2022-12-26T07:13:36.882Z,91.64
2022-12-26T07:17:39.836Z,92.25
2022-12-26T07:21:44.684Z,91.94
2022-12-26T07:25:48.410Z,92.00
2022-12-26T07:29:51.590Z,92.04
2022-12-26T07:33:57.558Z,91.89
2022-12-26T07:38:02.051Z,91.79
2022-12-26T07:42:05.108Z,91.66
2022-12-26T07:46:08.819Z,91.77
2022-12-26T07:50:11.845Z,91.44
2022-12-26T07:54:16.260Z,91.36
2022-12-26T07:58:19.154Z,91.56
2022-12-26T08:02:22.522Z,92.03
2022-12-26T08:06:27.435Z,91.93
2022-12-26T08:10:32.474Z,92.09
2022-12-26T08:14:35.917Z,92.19
2022-12-26T08:18:39.852Z,91.99
2022-12-26T08:22:43.161Z,91.98
2022-12-26T08:26:47.416Z,92.60
2022-12-26T08:30:50.779Z,93.26
2022-12-26T08:34:53.673Z,92.81
2022-12-26T08:38:57.377Z,92.16
2022-12-26T08:43:22.032Z,92.61
2022-12-26T08:47:26.575Z,92.39
2022-12-26T08:51:29.578Z,92.13
2022-12-26T08:55:32.701Z,92.05
2022-12-26T08:59:37.108Z,92.09
2022-12-26T09:03:40.680Z,92.21
2022-12-26T09:07:43.618Z,92.21
2022-12-26T09:11:48.002Z,92.51
2022-12-26T09:15:52.484Z,92.45
2022-12-26T09:19:55.557Z,92.59
2022-12-26T09:23:59.126Z,92.15
2022-12-26T09:28:02.159Z,92.41
2022-12-26T09:32:07.007Z,91.87
2022-12-26T09:36:14.801Z,91.51
2022-12-26T09:40:31.340Z,91.85
2022-12-26T09:44:46.572Z,92.12
2022-12-26T09:48:57.516Z,91.67
2022-12-26T09:53:04.164Z,91.33
2022-12-26T09:57:15.268Z,91.59
2022-12-26T10:01:21.509Z,91.30
2022-12-26T10:05:29.520Z,91.83
2022-12-26T10:09:55.348Z,91.71
2022-12-26T10:14:04.714Z,91.65
2022-12-26T10:18:19.087Z,91.67
2022-12-26T10:22:46.373Z,91.73
2022-12-26T10:26:51.886Z,91.59
2022-12-26T10:30:57.202Z,91.05
2022-12-26T10:35:01.360Z,90.91
2022-12-26T10:39:13.163Z,90.87
2022-12-26T10:43:28.539Z,90.73
2022-12-26T10:47:38.946Z,91.14
2022-12-26T10:51:41.879Z,91.21
2022-12-26T10:55:46.285Z,91.04
2022-12-26T10:59:52.624Z,91.15
2022-12-26T11:03:57.076Z,91.13
2022-12-26T11:08:08.755Z,90.69
2022-12-26T11:12:22.358Z,90.01
2022-12-26T11:16:27.710Z,90.40
2022-12-26T11:20:32.851Z,90.54
2022-12-26T11:24:35.814Z,90.47
2022-12-26T11:28:40.076Z,90.16
2022-12-26T11:32:43.911Z,90.17
2022-12-26T11:36:49.531Z,90.25
2022-12-26T11:41:12.738Z,90.39
2022-12-26T11:45:23.493Z,90.84
2022-12-26T11:49:31.017Z,91.07
2022-12-26T11:53:34.884Z,91.19
2022-12-26T11:57:37.789Z,91.25
2022-12-26T12:01:42.537Z,91.40
2022-12-26T12:05:54.224Z,91.65
2022-12-26T12:10:04.200Z,91.60
2022-12-26T12:14:22.718Z,91.45
2022-12-26T12:18:40.698Z,91.55
2022-12-26T12:23:19.528Z,91.74
2022-12-26T12:27:30.536Z,91.92
2022-12-26T12:31:47.111Z,91.81
2022-12-26T12:36:01.693Z,91.48
2022-12-26T12:40:17.840Z,91.27
2022-12-26T12:44:29.410Z,91.33
2022-12-26T12:48:47.980Z,90.99
2022-12-26T12:53:01.848Z,91.41
2022-12-26T12:57:14.281Z,91.17
2022-12-26T13:01:20.292Z,91.14
2022-12-26T13:05:39.416Z,90.86
2022-12-26T13:09:49.059Z,91.41
2022-12-26T13:13:56.754Z,91.34
2022-12-26T13:18:04.675Z,91.28
2022-12-26T13:22:14.339Z,91.38
2022-12-26T13:26:22.436Z,91.36
2022-12-26T13:30:25.615Z,90.85
2022-12-26T13:34:29.173Z,90.92
2022-12-26T13:39:09.505Z,90.39
2022-12-26T13:43:39.037Z,90.72
2022-12-26T13:47:42.197Z,90.96
2022-12-26T13:51:54.439Z,91.21
2022-12-26T13:55:59.719Z,91.17
2022-12-26T14:00:30.177Z,91.35
2022-12-26T14:04:48.955Z,91.28
2022-12-26T14:09:13.307Z,91.57
2022-12-26T14:13:37.575Z,91.46
2022-12-26T14:18:03.227Z,91.35
2022-12-26T14:22:16.777Z,91.01
2022-12-26T14:26:33.576Z,90.96
2022-12-26T14:30:52.508Z,91.24
2022-12-26T14:35:07.615Z,91.43
2022-12-26T14:39:23.529Z,91.19
2022-12-26T14:43:46.969Z,91.02
2022-12-26T14:47:50.666Z,91.02
2022-12-26T14:51:55.319Z,91.02
2022-12-26T14:56:00.051Z,90.93
2022-12-26T15:00:30.999Z,91.29
2022-12-26T15:05:09.138Z,90.66
2022-12-26T15:09:40.021Z,90.81
2022-12-26T15:14:15.589Z,90.81
2022-12-26T15:18:48.826Z,91.03
2022-12-26T15:23:24.625Z,90.88
2022-12-26T15:27:45.066Z,91.03
2022-12-26T15:31:57.525Z,90.98
2022-12-26T15:36:08.266Z,91.05
2022-12-26T15:40:16.399Z,91.04
2022-12-26T15:44:29.869Z,91.26
2022-12-26T15:48:45.837Z,91.28
2022-12-26T15:53:00.917Z,91.00
2022-12-26T15:57:16.130Z,91.15
2022-12-26T16:01:39.355Z,90.70
2022-12-26T16:05:52.908Z,90.90
2022-12-26T16:09:57.085Z,90.60
2022-12-26T16:14:02.253Z,90.50
2022-12-26T16:18:18.085Z,90.24
2022-12-26T16:22:46.969Z,90.65
2022-12-26T16:26:50.331Z,90.33
2022-12-26T16:30:53.680Z,90.31
2022-12-26T16:34:58.847Z,90.36
2022-12-26T16:39:02.680Z,90.43
2022-12-26T16:43:08.155Z,89.98
2022-12-26T16:47:14.121Z,89.92
2022-12-26T16:51:39.324Z,90.13
2022-12-26T16:55:45.444Z,89.61
2022-12-26T16:59:52.174Z,89.79
2022-12-26T17:03:59.421Z,89.72
2022-12-26T17:08:05.444Z,89.64
2022-12-26T17:12:18.286Z,89.98
2022-12-26T17:16:24.361Z,89.88
2022-12-26T17:20:45.024Z,89.95
2022-12-26T17:24:50.867Z,89.43
2022-12-26T17:28:54.091Z,89.02
2022-12-26T17:33:02.803Z,89.52
2022-12-26T17:37:19.083Z,89.57
2022-12-26T17:41:24.038Z,89.56
2022-12-26T17:45:28.671Z,89.33
2022-12-26T17:49:31.673Z,89.71
2022-12-26T17:53:37.258Z,89.81
2022-12-26T17:57:41.690Z,89.96
2022-12-26T18:01:44.740Z,89.90
2022-12-26T18:05:49.157Z,89.86
2022-12-26T18:09:53.503Z,89.82
2022-12-26T18:13:58.132Z,89.93
2022-12-26T18:18:01.150Z,89.66
2022-12-26T18:22:04.296Z,89.46
2022-12-26T18:26:25.860Z,89.32
2022-12-26T18:30:30.403Z,89.52
2022-12-26T18:34:34.422Z,89.64
2022-12-26T18:38:37.375Z,89.75
2022-12-26T18:42:40.484Z,90.57
2022-12-26T18:46:44.810Z,90.22
2022-12-26T18:50:47.776Z,89.95
2022-12-26T18:54:50.693Z,89.43
2022-12-26T18:58:57.852Z,89.46
2022-12-26T19:03:02.954Z,89.23
2022-12-26T19:07:06.101Z,88.76
2022-12-26T19:11:09.053Z,89.30
2022-12-26T19:15:13.659Z,89.98
2022-12-26T19:19:18.148Z,89.32
2022-12-26T19:23:21.067Z,88.45
2022-12-26T19:27:24.668Z,86.27
2022-12-26T19:31:27.831Z,85.08
2022-12-26T19:35:32.199Z,84.31
2022-12-26T19:39:35.369Z,83.19
2022-12-26T19:43:38.433Z,82.58
2022-12-26T19:47:41.381Z,82.27
2022-12-26T19:51:47.093Z,82.20
2022-12-26T19:55:50.129Z,81.67
2022-12-26T19:59:53.133Z,81.44
2022-12-26T20:03:57.358Z,80.67
2022-12-26T20:08:01.723Z,81.03
2022-12-26T20:12:05.042Z,81.15
2022-12-26T20:16:29.884Z,80.86
2022-12-26T20:20:33.104Z,80.22
2022-12-26T20:24:37.612Z,79.72
2022-12-26T20:28:40.640Z,78.65
2022-12-26T20:32:46.719Z,77.76
2022-12-26T20:36:50.090Z,77.01
2022-12-26T20:40:54.424Z,76.19
2022-12-26T20:44:57.349Z,74.84
2022-12-26T20:49:01.854Z,74.18
2022-12-26T20:53:04.840Z,74.00
2022-12-26T20:57:09.265Z,73.69
2022-12-26T21:01:15.478Z,73.39
2022-12-26T21:05:18.647Z,73.47
2022-12-26T21:09:21.906Z,73.35
2022-12-26T21:13:26.277Z,72.39
2022-12-26T21:17:29.312Z,72.73
2022-12-26T21:21:34.488Z,72.36
2022-12-26T21:25:37.419Z,72.63
2022-12-26T21:29:42.077Z,71.43
2022-12-26T21:33:45.152Z,71.81
2022-12-26T21:37:51.537Z,72.23
2022-12-26T21:41:54.503Z,71.90
2022-12-26T21:46:01.330Z,72.03
2022-12-26T21:50:05.172Z,71.09
2022-12-26T21:54:25.692Z,71.72
2022-12-26T21:58:29.430Z,70.94
2022-12-26T22:02:53.044Z,70.90
2022-12-26T22:06:56.318Z,70.72
2022-12-26T22:11:16.483Z,69.79
2022-12-26T22:15:37.196Z,69.92
2022-12-26T22:19:41.726Z,70.17
2022-12-26T22:23:45.072Z,70.64
2022-12-26T22:27:48.568Z,70.56
2022-12-26T22:31:51.499Z,70.35
2022-12-26T22:35:56.239Z,70.00
2022-12-26T22:39:59.210Z,69.81
2022-12-26T22:44:02.462Z,70.12
2022-12-26T22:48:05.715Z,69.91
2022-12-26T22:52:15.727Z,69.64
2022-12-26T22:56:18.971Z,69.24
2022-12-26T23:00:21.911Z,69.23
2022-12-26T23:04:25.890Z,68.54
2022-12-26T23:08:31.093Z,68.60
2022-12-26T23:12:47.062Z,68.59
2022-12-26T23:16:55.281Z,67.94
2022-12-26T23:21:19.284Z,67.61
2022-12-26T23:25:23.589Z,67.29
2022-12-26T23:29:44.447Z,66.48
2022-12-26T23:33:47.482Z,67.08
2022-12-26T23:37:51.644Z,66.65
2022-12-26T23:41:56.173Z,66.26
2022-12-26T23:45:59.507Z,66.28
2022-12-26T23:50:02.482Z,66.42
2022-12-26T23:54:05.533Z,66.57
2022-12-26T23:58:10.095Z,66.50
